Vremea acum in Abrud - Romania

Vrei sa afli care e starea vremii acum in Alba - Romania? Dorim sa iti furnizam starea vremii pentru Alba - Romania. Starea vremii Alba - Romania pentru astazi.

Vremea acum in Abrud

Temperatura: 21 °C

Se simte ca: 21 °C
Innorat: 25 %
Precipitatii: 0 %
Presiune atmosferica: 1011 hPa
Umiditate: 64%
Vizibilitate: 10 km
Vantul bate din SE cu 15.1 km/h

Evolutia vremii in Abrud pe ore

Ora: 10:00
Parțial noros
Temperatura: 17.7°C
Sansa de precipitatii: 0%
Ora Descriere Temp Se simte Precipitatii Umiditate Vant
00:00Ploi pe porţiuni în apropiere11.4°11.3°61%91%SE 4.3 KM/H
01:00Ploi pe porţiuni în apropiere9.9°9.9°60%90%WSW 4 KM/H
02:00Ploi pe porţiuni în apropiere8.5°8.4°60%88%N 4 KM/H
03:00Parțial noros8.5°8.4°40%88%NNW 3.2 KM/H
04:00Ploi pe porţiuni în apropiere8.4°8.4°20%88%NNW 2.9 KM/H
05:00Parțial noros8.4°8.4°0%88%NW 2.2 KM/H
06:00Parțial noros10.5°10.5°0%85%WNW 3.6 KM/H
07:00Parțial noros12.5°12.6°0%82%W 5 KM/H
08:00Parțial noros14.6°14.7°0%78%WSW 6.5 KM/H
09:00Parțial noros16.2°16.2°0%71%WSW 8.6 KM/H
10:00Parțial noros17.7°17.8°0%63%WSW 11.2 KM/H
11:00Parțial noros19.3°19.3°0%55%WSW 13.3 KM/H
12:00Ploi pe porţiuni în apropiere19.7°19.7°22%55%W 12.6 KM/H
13:00Parțial noros20.2°20.2°44%54%W 12.2 KM/H
14:00Ploi pe porţiuni în apropiere20.6°20.6°66%53%W 11.5 KM/H
15:00Ploi pe porţiuni în apropiere20.2°20.2°73%56%W 11.2 KM/H
16:00Ploi pe porţiuni în apropiere19.9°19.9°79%59%W 10.4 KM/H
17:00Ploi pe porţiuni în apropiere19.5°19.5°86%61%WNW 10.1 KM/H
18:00Ploi pe porţiuni în apropiere18.5°18.5°79%72%WNW 8.3 KM/H
19:00Ploi pe porţiuni în apropiere17.5°17.5°71%82%NW 6.1 KM/H
20:00Ploi pe porţiuni în apropiere16.5°16.5°64%92%NNW 4.3 KM/H
21:00Ceață15.2°15.2°43%93%SW 4 KM/H
22:00Ploi pe porţiuni în apropiere13.8°13.8°21%95%SE 4 KM/H
23:00Ceață12.5°12.5°0%96%NNE 3.6 KM/H